createdAt,value
2022-08-09T00:08:42.451Z,80.50
2022-08-09T00:18:45.822Z,80.83
2022-08-09T00:28:51.293Z,80.78
2022-08-09T00:38:55.941Z,80.55
2022-08-09T00:49:00.159Z,80.92
2022-08-09T00:59:03.762Z,81.13
2022-08-09T01:09:19.722Z,81.57
2022-08-09T01:19:39.893Z,81.71
2022-08-09T01:29:55.711Z,81.61
2022-08-09T01:40:01.587Z,81.46
2022-08-09T01:50:09.631Z,81.75
2022-08-09T02:00:35.174Z,82.16
2022-08-09T02:10:42.822Z,81.73
2022-08-09T02:20:58.853Z,81.75
2022-08-09T02:31:07.128Z,82.16
2022-08-09T02:41:15.340Z,81.96
2022-08-09T02:51:22.663Z,82.14
2022-08-09T03:02:05.166Z,82.41
2022-08-09T03:12:05.944Z,82.33
2022-08-09T03:22:25.129Z,82.53
2022-08-09T03:32:31.263Z,82.61
2022-08-09T03:42:34.490Z,82.57
2022-08-09T03:52:42.415Z,82.20
2022-08-09T04:02:46.145Z,82.15
2022-08-09T04:12:56.800Z,82.34
2022-08-09T04:23:00.505Z,83.10
2022-08-09T04:33:06.095Z,82.51
2022-08-09T04:43:10.565Z,82.27
2022-08-09T04:53:17.767Z,82.33
2022-08-09T05:03:40.390Z,83.15
2022-08-09T05:13:44.689Z,83.10
2022-08-09T05:23:54.625Z,83.81
2022-08-09T05:34:04.000Z,84.18
2022-08-09T05:44:07.011Z,84.72
2022-08-09T05:54:17.806Z,85.42
2022-08-09T06:04:23.583Z,85.52
2022-08-09T06:14:28.550Z,86.02
2022-08-09T06:24:31.438Z,85.44
2022-08-09T06:34:35.589Z,84.83
2022-08-09T06:44:39.361Z,84.48
2022-08-09T06:54:43.661Z,84.02
2022-08-09T07:04:46.547Z,83.46
2022-08-09T07:14:53.401Z,82.85
2022-08-09T07:24:56.348Z,81.79
2022-08-09T07:35:00.384Z,80.59
2022-08-09T07:45:06.633Z,78.65
2022-08-09T07:55:28.656Z,76.94
2022-08-09T08:05:54.394Z,75.44
2022-08-09T08:15:55.605Z,73.03
2022-08-09T08:26:06.399Z,73.02
2022-08-09T08:36:10.970Z,71.65
2022-08-09T08:46:33.438Z,69.88
2022-08-09T08:56:45.499Z,69.78
2022-08-09T09:06:57.579Z,63.92
2022-08-09T09:17:02.740Z,63.31
2022-08-09T09:27:47.223Z,61.50
2022-08-09T09:37:36.185Z,62.41
2022-08-09T09:47:56.215Z,57.90
2022-08-09T09:58:12.568Z,56.60
2022-08-09T10:08:27.558Z,55.42
2022-08-09T10:18:32.472Z,54.71
2022-08-09T10:28:36.104Z,55.44
2022-08-09T10:38:55.942Z,54.52
2022-08-09T10:49:07.785Z,52.57
2022-08-09T10:59:31.877Z,51.82
2022-08-09T11:09:56.138Z,48.60
2022-08-09T11:20:12.841Z,50.10
2022-08-09T11:30:34.659Z,48.91
2022-08-09T11:40:40.913Z,33.16
2022-08-09T11:52:49.124Z,26.05
2022-08-09T12:02:01.112Z,20.26
2022-08-09T12:12:03.288Z,18.96
2022-08-09T12:22:08.118Z,19.92
2022-08-09T12:32:13.128Z,19.51
2022-08-09T12:42:19.967Z,20.28
2022-08-09T12:52:42.813Z,19.27
2022-08-09T13:03:05.199Z,28.07
2022-08-09T13:13:10.842Z,34.52
2022-08-09T13:24:16.935Z,36.59
2022-08-09T13:33:53.690Z,38.36
2022-08-09T13:43:58.301Z,36.51
2022-08-09T13:54:01.930Z,39.33
2022-08-09T14:04:11.653Z,40.12
2022-08-09T14:14:23.937Z,39.74
2022-08-09T14:24:32.453Z,40.58
2022-08-09T14:34:36.600Z,39.54
2022-08-09T14:44:48.522Z,40.02
2022-08-09T14:54:52.440Z,40.23
2022-08-09T15:04:56.625Z,40.55
2022-08-09T15:15:01.357Z,41.45
2022-08-09T15:25:06.545Z,42.74
2022-08-09T15:35:18.161Z,42.58
2022-08-09T15:45:29.689Z,42.70
2022-08-09T15:55:35.227Z,43.45
2022-08-09T16:06:03.307Z,44.52
2022-08-09T16:16:13.516Z,45.39
2022-08-09T16:26:35.602Z,45.69
2022-08-09T16:36:39.178Z,46.60
2022-08-09T16:46:55.005Z,45.57
2022-08-09T16:56:58.234Z,46.62
2022-08-09T17:08:41.504Z,46.70
2022-08-09T17:17:27.417Z,47.32
2022-08-09T17:27:32.398Z,47.79
2022-08-09T17:38:02.497Z,48.00
2022-08-09T17:48:02.681Z,48.66
2022-08-09T17:58:08.808Z,48.73
2022-08-09T18:08:13.767Z,49.18
2022-08-09T18:18:25.730Z,50.11
2022-08-09T18:30:37.646Z,52.36
2022-08-09T18:39:00.755Z,52.73
2022-08-09T18:49:06.004Z,53.03
2022-08-09T18:59:09.249Z,53.90
2022-08-09T19:09:20.571Z,55.54
2022-08-09T19:19:41.298Z,57.06
2022-08-09T19:30:22.749Z,58.63
2022-08-09T19:40:10.443Z,59.67
2022-08-09T19:50:48.986Z,60.54
2022-08-09T20:00:42.190Z,62.13
2022-08-09T20:10:47.748Z,63.31
2022-08-09T20:20:55.066Z,64.23
2022-08-09T20:30:59.821Z,64.69
2022-08-09T20:41:05.935Z,65.57
2022-08-09T20:51:19.693Z,66.62
2022-08-09T21:01:34.635Z,67.83
2022-08-09T21:22:36.114Z,70.38
2022-08-09T21:32:33.490Z,70.84
2022-08-09T21:42:36.776Z,71.80
2022-08-09T21:52:44.328Z,72.46
2022-08-09T22:02:58.450Z,72.90
2022-08-09T22:13:07.538Z,74.40
2022-08-09T22:23:14.242Z,74.92
2022-08-09T22:33:19.535Z,75.50
2022-08-09T22:44:01.896Z,76.35
2022-08-09T22:54:01.021Z,76.50
2022-08-09T23:04:07.196Z,76.95
2022-08-09T23:14:16.956Z,77.28
2022-08-09T23:24:20.287Z,77.69
2022-08-09T23:34:24.286Z,77.70
2022-08-09T23:44:27.019Z,78.53
2022-08-09T23:54:31.146Z,78.65
